createdAt,value
2022-08-22T00:00:26.920Z,18.84
2022-08-22T00:02:48.505Z,20.64
2022-08-22T00:02:59.904Z,20.37
2022-08-22T00:03:03.864Z,22.49
2022-08-22T00:03:07.041Z,18.90
2022-08-22T00:03:08.327Z,19.69
2022-08-22T00:06:02.469Z,18.77
2022-08-22T00:08:41.230Z,18.75
2022-08-22T00:11:18.611Z,18.74
2022-08-22T00:14:01.958Z,18.71
2022-08-22T00:16:38.114Z,18.70
2022-08-22T00:19:19.281Z,18.67
2022-08-22T00:21:57.544Z,18.65
2022-08-22T00:24:32.053Z,18.62
2022-08-22T00:27:06.246Z,18.60
2022-08-22T00:29:43.522Z,18.58
2022-08-22T00:32:20.109Z,18.53
2022-08-22T00:34:57.272Z,18.52
2022-08-22T00:37:32.135Z,18.49
2022-08-22T00:40:10.564Z,18.44
2022-08-22T00:43:08.901Z,18.42
2022-08-22T00:46:21.356Z,18.37
2022-08-22T00:49:25.410Z,18.33
2022-08-22T00:55:22.030Z,18.29
2022-08-22T00:58:11.467Z,18.28
2022-08-22T01:00:46.793Z,18.27
2022-08-22T01:03:51.084Z,18.24
2022-08-22T01:06:31.311Z,18.23
2022-08-22T01:09:08.758Z,18.23
2022-08-22T01:12:01.122Z,18.21
2022-08-22T01:14:41.742Z,18.22
2022-08-22T01:17:38.084Z,18.20
2022-08-22T01:20:47.432Z,18.20
2022-08-22T01:24:34.027Z,18.17
2022-08-22T01:28:37.818Z,18.15
2022-08-22T01:31:44.344Z,18.13
2022-08-22T01:34:59.926Z,18.13
2022-08-22T01:37:57.306Z,18.11
2022-08-22T01:41:01.371Z,18.12
2022-08-22T01:44:10.346Z,18.12
2022-08-22T01:46:51.404Z,18.09
2022-08-22T01:49:23.802Z,18.10
2022-08-22T01:51:59.998Z,18.09
2022-08-22T01:54:49.139Z,18.07
2022-08-22T01:57:18.695Z,18.05
2022-08-22T01:59:52.914Z,18.03
2022-08-22T02:02:53.409Z,17.99
2022-08-22T02:05:28.725Z,17.97
2022-08-22T02:08:04.966Z,17.95
2022-08-22T02:10:56.335Z,17.91
2022-08-22T02:13:43.517Z,17.88
2022-08-22T02:16:18.434Z,17.86
2022-08-22T02:19:00.668Z,17.83
2022-08-22T02:21:43.995Z,17.78
2022-08-22T02:24:35.969Z,17.75
2022-08-22T02:27:13.933Z,17.72
2022-08-22T02:29:49.251Z,17.70
2022-08-22T02:32:25.043Z,17.66
2022-08-22T02:35:03.469Z,17.65
2022-08-22T02:37:39.540Z,17.61
2022-08-22T02:40:15.675Z,17.57
2022-08-22T02:42:52.720Z,17.53
2022-08-22T02:45:30.100Z,17.48
2022-08-22T02:48:07.706Z,17.43
2022-08-22T02:50:45.059Z,17.39
2022-08-22T02:53:19.012Z,17.38
2022-08-22T02:55:59.766Z,17.32
2022-08-22T02:58:40.575Z,17.26
2022-08-22T03:01:37.201Z,17.20
2022-08-22T03:04:28.721Z,17.14
2022-08-22T03:07:12.890Z,17.11
2022-08-22T03:09:48.868Z,17.08
2022-08-22T03:12:26.731Z,17.06
2022-08-22T03:15:06.402Z,17.03
2022-08-22T03:17:39.972Z,16.98
2022-08-22T03:20:15.562Z,16.94
2022-08-22T03:22:51.198Z,16.91
2022-08-22T03:25:28.382Z,16.88
2022-08-22T03:28:03.333Z,16.86
2022-08-22T03:30:40.734Z,16.85
2022-08-22T03:33:21.055Z,16.84
2022-08-22T03:36:05.125Z,16.85
2022-08-22T03:38:50.511Z,16.83
2022-08-22T03:42:04.845Z,16.83
2022-08-22T03:45:27.531Z,16.82
2022-08-22T03:48:38.068Z,16.80
2022-08-22T03:51:41.770Z,16.83
2022-08-22T03:55:00.077Z,16.84
2022-08-22T03:58:27.409Z,16.84
2022-08-22T04:01:31.467Z,16.85
2022-08-22T04:04:46.849Z,16.86
2022-08-22T04:07:49.106Z,16.88
2022-08-22T04:10:52.674Z,16.91
2022-08-22T04:14:04.427Z,16.93
2022-08-22T04:17:21.160Z,16.95
2022-08-22T04:20:38.301Z,16.96
2022-08-22T04:23:40.398Z,16.98
2022-08-22T04:26:15.653Z,17.04
2022-08-22T04:28:49.091Z,17.08
2022-08-22T04:31:24.577Z,17.12
2022-08-22T04:34:01.863Z,17.16
2022-08-22T04:36:37.072Z,17.21
2022-08-22T04:39:10.873Z,17.26
2022-08-22T04:41:48.217Z,17.30
2022-08-22T04:44:25.482Z,17.33
2022-08-22T04:46:59.542Z,17.36
2022-08-22T04:49:36.653Z,17.40
2022-08-22T04:52:13.772Z,17.45
2022-08-22T04:54:57.846Z,17.50
2022-08-22T04:57:37.049Z,17.54
2022-08-22T05:00:10.180Z,17.59
2022-08-22T05:02:41.545Z,17.62
2022-08-22T05:05:21.906Z,17.64
2022-08-22T05:07:54.566Z,17.68
2022-08-22T05:10:34.520Z,17.73
2022-08-22T05:13:07.813Z,17.78
2022-08-22T05:15:40.559Z,17.84
2022-08-22T05:18:20.123Z,17.88
2022-08-22T05:20:51.540Z,17.95
2022-08-22T05:23:23.022Z,18.00
2022-08-22T05:25:57.188Z,18.06
2022-08-22T05:28:34.866Z,18.13
2022-08-22T05:31:08.346Z,18.20
2022-08-22T05:33:42.790Z,18.28
2022-08-22T05:36:16.389Z,18.36
2022-08-22T05:38:50.381Z,18.48
2022-08-22T05:41:23.693Z,18.60
2022-08-22T05:43:53.679Z,18.69
2022-08-22T05:46:40.597Z,18.82
2022-08-22T05:49:20.178Z,18.94
2022-08-22T05:52:04.165Z,19.07
2022-08-22T05:54:39.838Z,19.17
2022-08-22T05:57:16.569Z,19.26
2022-08-22T05:59:47.803Z,19.33
2022-08-22T06:02:23.968Z,19.41
2022-08-22T06:04:55.898Z,19.48
2022-08-22T06:07:34.498Z,19.55
2022-08-22T06:10:25.994Z,19.65
2022-08-22T06:13:00.769Z,19.75
2022-08-22T06:15:36.142Z,19.85
2022-08-22T06:18:08.065Z,19.92
2022-08-22T06:20:43.017Z,19.99
2022-08-22T06:23:20.213Z,20.06
2022-08-22T06:25:50.729Z,20.15
2022-08-22T06:28:24.081Z,20.23
2022-08-22T06:30:55.669Z,20.31
2022-08-22T06:33:29.228Z,20.40
2022-08-22T06:36:20.526Z,20.50
2022-08-22T06:39:18.488Z,20.57
2022-08-22T06:41:52.284Z,20.66
2022-08-22T06:44:28.533Z,20.78
2022-08-22T06:47:01.895Z,20.89
2022-08-22T06:49:31.873Z,20.99
2022-08-22T06:52:03.842Z,21.12
2022-08-22T06:54:38.220Z,21.18
2022-08-22T06:57:24.312Z,21.24
2022-08-22T06:59:54.710Z,21.30
2022-08-22T07:02:30.877Z,21.35
2022-08-22T07:04:59.294Z,21.40
2022-08-22T07:07:28.931Z,21.50
2022-08-22T07:09:58.640Z,21.57
2022-08-22T07:12:31.801Z,21.63
2022-08-22T07:15:11.538Z,21.69
2022-08-22T07:17:50.836Z,21.78
2022-08-22T07:20:26.968Z,21.87
2022-08-22T07:23:00.438Z,21.94
2022-08-22T07:25:31.693Z,22.02
2022-08-22T07:28:18.349Z,22.09
2022-08-22T07:30:57.642Z,22.20
2022-08-22T07:33:43.805Z,22.31
2022-08-22T07:36:32.008Z,22.42
2022-08-22T07:39:29.956Z,22.51
2022-08-22T07:42:10.455Z,22.61
2022-08-22T07:45:04.954Z,22.71
2022-08-22T07:47:50.235Z,22.81
2022-08-22T07:50:24.994Z,22.89
2022-08-22T07:52:54.889Z,22.94
2022-08-22T07:55:26.462Z,22.94
2022-08-22T07:58:01.682Z,22.97
2022-08-22T08:00:33.941Z,23.05
2022-08-22T08:03:07.088Z,23.10
2022-08-22T08:05:38.679Z,23.14
2022-08-22T08:08:15.734Z,23.17
2022-08-22T08:10:44.444Z,23.20
2022-08-22T08:13:23.129Z,23.26
2022-08-22T08:15:52.119Z,23.31
2022-08-22T08:18:25.797Z,23.37
2022-08-22T08:20:57.539Z,23.41
2022-08-22T08:23:27.151Z,23.49
2022-08-22T08:26:04.582Z,23.62
2022-08-22T08:28:39.171Z,23.77
2022-08-22T08:31:20.613Z,23.94
2022-08-22T08:33:51.852Z,24.13
2022-08-22T08:36:39.164Z,24.28
2022-08-22T08:39:18.194Z,24.44
2022-08-22T08:42:56.995Z,24.59
2022-08-22T08:46:07.551Z,24.62
2022-08-22T08:49:17.217Z,24.69
2022-08-22T08:52:51.096Z,24.77
2022-08-22T08:55:39.161Z,24.90
2022-08-22T08:58:38.054Z,24.97
2022-08-22T09:01:45.353Z,24.97
2022-08-22T09:04:59.814Z,24.99
2022-08-22T09:07:51.760Z,25.03
2022-08-22T09:10:57.118Z,25.07
2022-08-22T09:13:55.748Z,25.07
2022-08-22T09:16:46.195Z,25.13
2022-08-22T09:20:36.129Z,25.26
2022-08-22T09:23:45.355Z,25.41
2022-08-22T09:26:19.931Z,25.60
2022-08-22T09:29:00.664Z,25.81
2022-08-22T09:31:47.806Z,26.08
2022-08-22T09:34:29.293Z,26.22
2022-08-22T09:37:17.018Z,26.33
2022-08-22T09:39:57.454Z,26.47
2022-08-22T09:42:36.109Z,26.67
2022-08-22T09:45:47.915Z,26.68
2022-08-22T09:48:46.582Z,26.54
2022-08-22T09:51:32.576Z,26.54
2022-08-22T09:54:22.869Z,26.66
2022-08-22T09:57:02.419Z,26.78
2022-08-22T09:59:58.147Z,27.05
2022-08-22T10:02:36.346Z,27.44
2022-08-22T10:05:39.467Z,27.77
2022-08-22T10:08:19.840Z,27.85
2022-08-22T10:11:19.531Z,27.87
2022-08-22T10:14:03.661Z,27.89
2022-08-22T10:16:51.766Z,27.82
2022-08-22T10:19:28.530Z,27.72
2022-08-22T10:22:32.573Z,27.52
2022-08-22T10:25:28.736Z,27.43
2022-08-22T10:28:15.518Z,27.49
2022-08-22T10:31:00.868Z,27.55
2022-08-22T10:33:36.442Z,27.56
2022-08-22T10:36:12.276Z,27.52
2022-08-22T10:38:47.209Z,27.52
2022-08-22T10:41:28.961Z,27.48
2022-08-22T10:44:04.516Z,27.54
2022-08-22T10:46:39.512Z,27.60
2022-08-22T10:49:20.374Z,27.70
2022-08-22T10:51:58.933Z,27.78
2022-08-22T10:54:49.400Z,27.82
2022-08-22T10:57:41.860Z,27.76
2022-08-22T11:00:28.441Z,27.76
2022-08-22T11:03:10.953Z,27.77
2022-08-22T11:05:50.052Z,27.82
2022-08-22T11:08:54.959Z,27.81
2022-08-22T11:11:42.880Z,27.80
2022-08-22T11:14:44.908Z,27.86
2022-08-22T11:17:38.120Z,27.92
2022-08-22T11:20:21.248Z,27.93
2022-08-22T11:23:12.295Z,27.91
2022-08-22T11:25:54.187Z,27.96
2022-08-22T11:28:52.113Z,28.08
2022-08-22T11:31:31.616Z,28.20
2022-08-22T11:34:12.452Z,28.24
2022-08-22T11:36:50.204Z,28.33
2022-08-22T11:39:27.572Z,28.37
2022-08-22T11:42:06.461Z,28.44
2022-08-22T11:44:50.156Z,28.53
2022-08-22T11:47:27.286Z,28.58
2022-08-22T11:50:05.569Z,28.63
2022-08-22T11:53:10.136Z,28.60
2022-08-22T11:55:42.249Z,28.66
2022-08-22T11:58:31.485Z,28.71
2022-08-22T12:01:05.931Z,28.86
2022-08-22T12:03:55.744Z,29.31
2022-08-22T12:06:56.100Z,29.68
2022-08-22T12:09:50.741Z,30.01
2022-08-22T12:12:32.634Z,30.32
2022-08-22T12:15:12.882Z,30.57
2022-08-22T12:18:21.124Z,30.64
2022-08-22T12:21:38.782Z,30.66
2022-08-22T12:24:34.780Z,30.66
2022-08-22T12:27:29.501Z,30.75
2022-08-22T12:30:14.166Z,31.03
2022-08-22T12:33:13.115Z,31.57
2022-08-22T12:36:00.370Z,31.78
2022-08-22T12:38:47.121Z,31.92
2022-08-22T12:41:40.052Z,31.97
2022-08-22T12:44:32.317Z,31.93
2022-08-22T12:47:26.424Z,31.90
2022-08-22T12:50:16.571Z,32.04
2022-08-22T12:53:23.392Z,32.28
2022-08-22T12:56:06.703Z,32.61
2022-08-22T12:59:08.810Z,32.86
2022-08-22T13:01:43.344Z,32.97
2022-08-22T13:04:32.504Z,33.16
2022-08-22T13:07:11.033Z,33.39
2022-08-22T13:09:43.293Z,33.47
2022-08-22T13:12:24.744Z,33.54
2022-08-22T13:14:59.683Z,34.39
2022-08-22T13:17:28.281Z,35.35
2022-08-22T13:20:08.525Z,35.98
2022-08-22T13:22:45.485Z,36.50
2022-08-22T13:25:25.469Z,37.18
2022-08-22T13:27:59.214Z,37.73
2022-08-22T13:30:33.898Z,38.08
2022-08-22T13:33:10.193Z,38.55
2022-08-22T13:35:51.900Z,38.98
2022-08-22T13:38:28.295Z,39.28
2022-08-22T13:40:59.115Z,39.56
2022-08-22T13:43:31.287Z,39.87
2022-08-22T13:46:04.792Z,40.15
2022-08-22T13:49:00.845Z,40.44
2022-08-22T13:51:40.114Z,40.89
2022-08-22T13:54:40.014Z,41.34
2022-08-22T13:57:16.359Z,41.37
2022-08-22T13:59:52.680Z,41.09
2022-08-22T14:02:52.597Z,41.40
2022-08-22T14:05:27.077Z,42.00
2022-08-22T14:08:12.838Z,42.54
2022-08-22T14:10:50.568Z,42.59
2022-08-22T14:13:39.559Z,42.13
2022-08-22T14:16:15.040Z,41.71
2022-08-22T14:18:51.320Z,41.80
2022-08-22T14:21:40.611Z,41.71
2022-08-22T14:24:25.836Z,42.00
2022-08-22T14:27:05.165Z,41.69
2022-08-22T14:29:42.710Z,41.54
2022-08-22T14:32:35.305Z,42.54
2022-08-22T14:35:21.528Z,43.39
2022-08-22T14:37:56.656Z,44.01
2022-08-22T14:40:31.074Z,44.35
2022-08-22T14:43:07.873Z,44.18
2022-08-22T14:45:39.783Z,43.45
2022-08-22T14:48:30.890Z,43.28
2022-08-22T14:51:05.730Z,43.65
2022-08-22T14:53:40.129Z,43.97
2022-08-22T14:56:13.773Z,44.30
2022-08-22T14:58:53.266Z,43.55
2022-08-22T15:01:26.324Z,42.19
2022-08-22T15:04:05.247Z,41.86
2022-08-22T15:06:38.112Z,42.08
2022-08-22T15:09:12.916Z,41.61
2022-08-22T15:11:49.393Z,41.90
2022-08-22T15:14:28.016Z,41.50
2022-08-22T15:17:00.305Z,41.69
2022-08-22T15:19:36.663Z,42.06
2022-08-22T15:22:16.137Z,41.86
2022-08-22T15:24:51.376Z,41.54
2022-08-22T15:27:27.723Z,41.53
2022-08-22T15:30:01.348Z,41.43
2022-08-22T15:32:36.364Z,40.85
2022-08-22T15:35:15.719Z,40.03
2022-08-22T15:37:59.848Z,39.05
2022-08-22T15:40:40.323Z,38.47
2022-08-22T15:43:20.129Z,38.07
2022-08-22T15:45:52.197Z,37.67
2022-08-22T15:48:33.667Z,37.61
2022-08-22T15:51:04.722Z,38.01
2022-08-22T15:54:16.308Z,37.93
2022-08-22T15:57:17.268Z,37.52
2022-08-22T15:59:57.510Z,36.85
2022-08-22T16:02:35.466Z,36.09
2022-08-22T16:05:24.814Z,35.28
2022-08-22T16:08:04.778Z,34.73
2022-08-22T16:10:39.926Z,34.29
2022-08-22T16:13:17.694Z,33.85
2022-08-22T16:16:03.389Z,33.43
2022-08-22T16:19:11.324Z,32.97
2022-08-22T16:22:06.994Z,32.59
2022-08-22T16:25:11.017Z,32.26
2022-08-22T16:27:55.925Z,32.05
2022-08-22T16:30:40.273Z,31.82
2022-08-22T16:33:18.313Z,31.61
2022-08-22T16:36:41.304Z,31.36
2022-08-22T16:39:31.833Z,31.21
2022-08-22T16:42:27.176Z,31.02
2022-08-22T16:45:13.435Z,30.91
2022-08-22T16:47:56.799Z,30.86
2022-08-22T16:50:34.530Z,30.74
2022-08-22T16:53:13.813Z,30.68
2022-08-22T16:56:05.261Z,30.62
2022-08-22T16:59:19.712Z,30.61
2022-08-22T17:02:28.161Z,30.58
2022-08-22T17:05:16.483Z,30.61
2022-08-22T17:08:05.608Z,30.55
2022-08-22T17:10:54.073Z,30.50
2022-08-22T17:13:47.844Z,30.60
2022-08-22T17:16:35.863Z,30.80
2022-08-22T17:19:23.810Z,30.62
2022-08-22T17:21:57.777Z,30.34
2022-08-22T17:24:37.719Z,30.28
2022-08-22T17:27:19.251Z,30.64
2022-08-22T17:30:02.701Z,30.79
2022-08-22T17:33:00.429Z,30.74
2022-08-22T17:35:46.976Z,30.93
2022-08-22T17:38:31.219Z,31.45
2022-08-22T17:41:12.234Z,31.85
2022-08-22T17:44:00.368Z,31.93
2022-08-22T17:46:43.935Z,31.44
2022-08-22T17:49:28.549Z,30.75
2022-08-22T17:52:17.812Z,30.11
2022-08-22T17:54:55.199Z,29.50
2022-08-22T17:57:30.701Z,29.28
2022-08-22T18:00:07.852Z,29.56
2022-08-22T18:02:47.745Z,29.55
2022-08-22T18:05:20.686Z,29.07
2022-08-22T18:08:00.315Z,28.53
2022-08-22T18:10:43.701Z,28.09
2022-08-22T18:13:20.378Z,27.79
2022-08-22T18:15:56.205Z,27.45
2022-08-22T18:18:32.255Z,27.12
2022-08-22T18:21:05.219Z,26.83
2022-08-22T18:23:40.920Z,26.57
2022-08-22T18:26:36.062Z,26.25
2022-08-22T18:29:13.561Z,26.01
2022-08-22T18:31:50.527Z,25.78
2022-08-22T18:34:32.798Z,25.59
2022-08-22T18:37:07.086Z,25.46
2022-08-22T18:39:43.918Z,25.31
2022-08-22T18:42:25.666Z,25.16
2022-08-22T18:44:53.994Z,25.04
2022-08-22T18:47:27.297Z,24.91
2022-08-22T18:49:57.093Z,24.82
2022-08-22T18:52:41.878Z,24.71
2022-08-22T18:55:54.870Z,24.56
2022-08-22T18:59:05.441Z,24.46
2022-08-22T19:01:50.258Z,24.35
2022-08-22T19:04:47.021Z,24.26
2022-08-22T19:07:42.031Z,24.18
2022-08-22T19:10:37.533Z,24.06
2022-08-22T19:13:30.963Z,23.94
2022-08-22T19:16:28.250Z,23.86
2022-08-22T19:19:01.467Z,23.75
2022-08-22T19:21:51.448Z,23.63
2022-08-22T19:25:12.859Z,23.43
2022-08-22T19:27:44.657Z,23.31
2022-08-22T19:30:44.067Z,23.17
2022-08-22T19:33:19.303Z,23.08
2022-08-22T19:36:11.861Z,22.96
2022-08-22T19:39:02.231Z,22.87
2022-08-22T19:41:52.430Z,22.78
2022-08-22T19:44:42.058Z,22.68
2022-08-22T19:47:28.289Z,22.60
2022-08-22T19:50:05.640Z,22.57
2022-08-22T19:52:58.651Z,22.47
2022-08-22T19:55:49.160Z,22.42
2022-08-22T19:58:31.839Z,22.35
2022-08-22T20:01:13.034Z,22.30
2022-08-22T20:03:51.490Z,22.25
2022-08-22T20:06:43.974Z,22.18
2022-08-22T20:09:39.987Z,22.12
2022-08-22T20:12:16.387Z,22.08
2022-08-22T20:14:48.169Z,22.01
2022-08-22T20:17:43.419Z,21.96
2022-08-22T20:20:36.110Z,21.90
2022-08-22T20:23:12.554Z,21.86
2022-08-22T20:25:45.927Z,21.81
2022-08-22T20:28:40.555Z,21.76
2022-08-22T20:31:22.529Z,21.72
2022-08-22T20:33:58.201Z,21.68
2022-08-22T20:36:27.586Z,21.64
2022-08-22T20:39:01.577Z,21.60
2022-08-22T20:41:35.507Z,21.55
2022-08-22T20:44:13.266Z,21.52
2022-08-22T20:46:55.492Z,21.48
2022-08-22T20:49:28.446Z,21.43
2022-08-22T20:52:00.291Z,21.41
2022-08-22T20:54:32.803Z,21.37
2022-08-22T20:57:05.190Z,21.35
2022-08-22T20:59:37.588Z,21.32
2022-08-22T21:02:18.018Z,21.28
2022-08-22T21:04:53.809Z,21.25
2022-08-22T21:07:25.741Z,21.22
2022-08-22T21:10:25.410Z,21.20
2022-08-22T21:13:08.991Z,21.17
2022-08-22T21:15:41.796Z,21.19
2022-08-22T21:18:13.046Z,21.20
2022-08-22T21:20:42.048Z,21.21
2022-08-22T21:23:15.185Z,21.22
2022-08-22T21:25:56.848Z,21.23
2022-08-22T21:28:32.795Z,21.25
2022-08-22T21:31:10.300Z,21.27
2022-08-22T21:33:46.119Z,21.26
2022-08-22T21:36:17.675Z,21.25
2022-08-22T21:38:52.450Z,21.22
2022-08-22T21:41:37.497Z,21.17
2022-08-22T21:44:29.363Z,21.11
2022-08-22T21:47:04.068Z,21.08
2022-08-22T21:49:33.528Z,21.00
2022-08-22T21:52:01.662Z,20.96
2022-08-22T21:54:41.731Z,20.90
2022-08-22T21:57:33.421Z,20.84
2022-08-22T22:00:02.050Z,20.78
2022-08-22T22:02:36.615Z,20.73
2022-08-22T22:05:11.314Z,20.68
2022-08-22T22:07:43.693Z,20.64
2022-08-22T22:10:15.562Z,20.60
2022-08-22T22:12:47.541Z,20.56
2022-08-22T22:15:20.424Z,20.51
2022-08-22T22:17:48.848Z,20.47
2022-08-22T22:20:21.061Z,20.39
2022-08-22T22:22:49.530Z,20.36
2022-08-22T22:25:39.106Z,20.33
2022-08-22T22:28:13.113Z,20.29
2022-08-22T22:30:42.456Z,20.26
2022-08-22T22:33:10.675Z,20.20
2022-08-22T22:35:41.390Z,20.18
2022-08-22T22:38:10.359Z,20.12
2022-08-22T22:40:38.536Z,20.08
2022-08-22T22:43:06.777Z,20.03
2022-08-22T22:45:35.145Z,19.99
2022-08-22T22:48:03.641Z,19.95
2022-08-22T22:50:32.225Z,19.89
2022-08-22T22:53:01.713Z,19.83
2022-08-22T22:55:29.911Z,19.79
2022-08-22T22:57:59.784Z,19.73
2022-08-22T23:00:31.155Z,19.66
2022-08-22T23:03:01.059Z,19.63
2022-08-22T23:05:31.045Z,19.59
2022-08-22T23:08:01.177Z,19.55
2022-08-22T23:10:31.953Z,19.51
2022-08-22T23:13:00.493Z,19.46
2022-08-22T23:15:29.173Z,19.42
2022-08-22T23:17:57.381Z,19.38
2022-08-22T23:20:25.649Z,19.33
2022-08-22T23:22:53.821Z,19.30
2022-08-22T23:25:23.408Z,19.27
2022-08-22T23:27:52.136Z,19.24
2022-08-22T23:30:21.737Z,19.21
2022-08-22T23:32:50.293Z,19.19
2022-08-22T23:35:18.606Z,19.17
2022-08-22T23:37:46.788Z,19.14
2022-08-22T23:40:15.010Z,19.11
2022-08-22T23:42:44.763Z,19.07
2022-08-22T23:45:13.010Z,19.05
2022-08-22T23:47:41.070Z,19.01
2022-08-22T23:50:10.076Z,19.00
2022-08-22T23:52:38.268Z,18.96
2022-08-22T23:55:07.595Z,18.96
2022-08-22T23:57:35.877Z,18.94
